• Join FlightAware (Why Join?)
  • Login
  • US Flag 
07:41AM EST


 

Airport Tracker/Info


-or-


 

Live Flight TrackerFlight Track Log ✈ FIV521 ✈ 19-Apr-2013 ✈ KFMY - KLZU

Flight Track Log - Related Links

Times and Time Zones

All times are in EDT time to prevent confusion due to time zone crossing. See the FIV521 flight status page for this flight to view local times or setup timezone preferences in your user account.

Time Position Orientation Groundspeed Altitude Reporting Facility
EDT Latitude Longitude Course Direction KTS MPH feet Rate Location/Type
08:29AM 26.7175 -81.7936 355° North 275 316 6,300  Level Miami Center
08:30AM 26.7972 -81.7806 North 281 323 9,600 2,760 Climbing Miami Center
08:31AM 26.8853 -81.7681 North 287 330 11,900 2,580 Climbing Miami Center
08:32AM 26.9775 -81.7533 North 314 361 14,800 2,700 Climbing Miami Center
08:33AM 26.9868 -81.8984 354° North  Level FlightAware Approximate
08:33AM 27.0631 -81.7569 358° North 314 361 17,400  Level Miami Center
08:34AM 27.0845 -81.9084 355° North  Level FlightAware Approximate
08:34AM 27.1497 -81.7864 343° North 308 354 19,700  Level Miami Center
08:35AM 27.2386 -81.8133 345° North 325 374 21,600 1,800 Climbing Miami Center
08:36AM 27.3397 -81.8481 343° North 333 383 23,300 1,560 Climbing Miami Center
08:37AM 27.4325 -81.8825 342° North 343 395 24,800 1,500 Climbing Miami Center
08:38AM 27.5294 -81.9147 344° North 343 395 26,400 1,560 Climbing Miami Center
08:39AM 27.6117 -81.9467 341° North 343 395 28,000 1,200 Climbing Miami Center
08:42AM 27.8736 -82.0333 344° North 372 428 30,800 1,140 Climbing Jacksonville Center
08:43AM 27.9700 -82.0631 345° North 366 421 32,200 1,380 Climbing Jacksonville Center
08:44AM 28.0681 -82.0928 345° North 361 415 33,600 1,380 Climbing Jacksonville Center
08:45AM 28.1644 -82.1203 346° North 361 415 35,000 1,440 Climbing Jacksonville Center
08:46AM 28.2606 -82.1503 345° North 361 415 36,500 1,380 Climbing Jacksonville Center
08:47AM 28.3567 -82.1778 346° North 361 415 37,800 1,140 Climbing Jacksonville Center
08:48AM 28.4528 -82.2078 345° North 361 415 38,800 960 Climbing Jacksonville Center
08:49AM 28.5531 -82.2356 346° North 361 415 39,800 600 Climbing Jacksonville Center
08:50AM 28.6514 -82.2656 345° North 361 415 40,000 60 Climbing Jacksonville Center
08:51AM 28.7536 -82.2981 344° North 367 422 40,000  Level Jacksonville Center
08:52AM 28.8583 -82.3283 346° North 373 429 40,000  Level Jacksonville Center
08:53AM 28.9564 -82.3586 345° North 373 429 40,000  Level Jacksonville Center
08:54AM 29.0608 -82.3889 346° North 379 436 40,000  Level Jacksonville Center
08:55AM 29.1656 -82.4147 348° North 379 436 40,000  Level Jacksonville Center
08:56AM 29.2761 -82.4164 359° North 384 442 40,000  Level Jacksonville Center
08:57AM 29.3889 -82.4231 357° North 390 449 40,000  Level Jacksonville Center
08:58AM 29.4994 -82.4250 359° North 390 449 40,000 -180 Level Jacksonville Center
08:59AM 29.6122 -82.4317 357° North 396 456 39,700 -480 Descending Jacksonville Center
09:00AM 29.7228 -82.4333 359° North 396 456 39,100 -360 Descending Jacksonville Center
09:01AM 29.8439 -82.4400 357° North 396 456 39,000 -60 Descending Jacksonville Center
09:02AM 29.9547 -82.4442 358° North 401 461 39,000  Level Jacksonville Center
09:03AM 30.0569 -82.4533 356° North 401 461 39,000  Level Jacksonville Center
09:04AM 30.1697 -82.4578 358° North 406 467 39,000  Level Jacksonville Center
09:05AM 30.2825 -82.4594 359° North 406 467 39,000  Level Jacksonville Center
09:06AM 30.3931 -82.4664 357° North 406 467 39,000  Level Jacksonville Center
09:07AM 30.5081 -82.4706 358° North 406 467 39,000  Level Jacksonville Center
09:08AM 30.6167 -82.4725 359° North 401 461 39,000  Level Jacksonville Center
09:09AM 30.7314 -82.4406 13° North 406 467 39,000 -300 Level Jacksonville Center
09:10AM 30.8461 -82.4133 12° North 411 473 38,500 -900 Descending Jacksonville Center
09:11AM 30.9586 -82.3861 12° North 411 473 37,300 -1,560 Descending Jacksonville Center
09:12AM 31.0756 -82.3564 12° North 417 480 35,400 -1,920 Descending Jacksonville Center
09:13AM 31.1922 -82.3364 North 417 480 33,500 -1,200 Descending Jacksonville Center
09:14AM 31.3050 -82.3383 359° North 412 474 33,000 -300 Descending Jacksonville Center
09:15AM 31.4117 -82.3742 344° North 397 457 33,000  Level Jacksonville Center
09:16AM 31.5206 -82.4172 341° North 397 457 33,000  Level Jacksonville Center
09:17AM 31.6356 -82.4656 340° North 415 478 33,000  Level Jacksonville Center
09:19AM 31.8858 -82.5639 342° North 439 505 33,000  Level Atlanta Center
09:20AM 31.9992 -82.6086 341° North 434 499 33,000  Level Atlanta Center
09:21AM 32.1103 -82.6533 341° North 426 490 33,000  Level Atlanta Center
09:22AM 32.2236 -82.6958 342° North 426 490 33,000 -840 Level Atlanta Center
09:23AM 32.3325 -82.7408 341° North 426 490 31,400 -1,800 Descending Atlanta Center
09:24AM 32.4372 -82.7811 342° North 432 497 29,500 -1,920 Descending Atlanta Center
09:25AM 32.5506 -82.8264 341° North 432 497 27,600 -1,920 Descending Atlanta Center
09:26AM 32.6472 -82.9139 323° Northwest 427 491 25,700 -1,920 Descending Atlanta Center
09:27AM 32.7378 -83.0092 319° Northwest 432 497 23,800 -1,800 Descending Atlanta Center
09:28AM 32.8219 -83.0922 320° Northwest 421 484 22,100 -1,740 Descending Atlanta Center
09:29AM 32.9083 -83.1778 320° Northwest 408 470 20,400 -1,260 Descending Atlanta Center
09:30AM 32.9944 -83.2611 321° Northwest 401 461 19,600 -780 Descending Atlanta Center
09:31AM 33.0764 -83.3497 318° Northwest 401 461 18,900 -1,500 Descending Atlanta Center
09:32AM 33.1581 -83.4308 320° Northwest 390 449 16,700 -2,280 Descending Atlanta Center
09:33AM 33.2464 -83.5197 320° Northwest 384 442 14,400 -2,220 Descending Atlanta Center
09:34AM 33.3239 -83.5989 320° Northwest 379 436 12,300 -1,740 Descending Atlanta Center
09:35AM 33.3886 -83.6656 319° Northwest 338 389 11,000 -660 Descending Atlanta Center
09:36AM 33.4556 -83.7200 326° Northwest 298 343 11,000 -720 Level Atlanta Center
09:37AM 33.5456 -83.7222 359° North 292 336 9,600 -1,500 Descending Atlanta Center
09:38AM 33.6372 -83.7169 North 316 364 8,100 -1,140 Descending Atlanta Center
09:39AM 33.7269 -83.7117 North 325 374 7,400 -1,140 Descending Atlanta Center
09:40AM 33.8167 -83.7089 North 325 374 5,900 -1,560 Descending Atlanta Center
09:41AM 33.9022 -83.7033 North 315 362 4,300 -960 Descending Atlanta Center
09:42AM 33.9878 -83.7006 North 307 353 4,000 -120 Descending Atlanta Center
09:44AM 34.0500 -83.7833 312° West 223 257 4,000 -300 Level Atlanta TRACON
09:45AM 34.0333 -83.8333 248° West 153 176 3,300 -660 Descending Atlanta TRACON
09:46AM 34.0167 -83.8500 220° Southwest 87 100 2,800 -540 Descending Atlanta TRACON
09:47AM 34.0167 -83.8833 270° West 106 122 2,300 -600 Descending Atlanta TRACON
09:48AM 34.0000 -83.9167 239° Southwest 113 130 1,700 -720 Descending Atlanta TRACON
09:50AM 33.9667 -83.9500 121° Southeast  Level FlightAware Approximate
09:57AM 33.9781 -83.9624 121° Southeast  Level Estimated